createdAt,value
2023-10-21T00:02:19.402Z,53.10
2023-10-21T00:04:47.394Z,53.28
2023-10-21T00:07:15.444Z,53.28
2023-10-21T00:09:43.446Z,53.31
2023-10-21T00:12:13.379Z,53.35
2023-10-21T00:14:45.108Z,53.42
2023-10-21T00:17:13.114Z,53.18
2023-10-21T00:19:41.088Z,53.12
2023-10-21T00:22:09.085Z,52.91
2023-10-21T00:24:37.065Z,52.31
2023-10-21T00:27:05.090Z,52.61
2023-10-21T00:29:33.115Z,52.89
2023-10-21T00:32:02.905Z,52.43
2023-10-21T00:34:30.882Z,52.49
2023-10-21T00:36:58.885Z,52.62
2023-10-21T00:39:26.869Z,51.89
2023-10-21T00:41:54.856Z,52.11
2023-10-21T00:44:22.833Z,52.19
2023-10-21T00:46:50.826Z,52.38
2023-10-21T00:49:20.237Z,51.85
2023-10-21T00:51:49.824Z,51.48
2023-10-21T00:54:18.892Z,51.55
2023-10-21T00:56:46.954Z,51.25
2023-10-21T00:59:15.967Z,51.38
2023-10-21T01:01:45.200Z,50.99
2023-10-21T01:04:14.819Z,51.24
2023-10-21T01:06:45.222Z,50.93
2023-10-21T01:09:15.536Z,51.03
2023-10-21T01:11:43.715Z,51.37
2023-10-21T01:14:11.907Z,51.23
2023-10-21T01:16:39.935Z,51.79
2023-10-21T01:19:08.287Z,51.53
2023-10-21T01:21:36.427Z,51.20
2023-10-21T01:24:06.472Z,51.17
2023-10-21T01:26:35.051Z,51.26
2023-10-21T01:29:03.029Z,51.04
2023-10-21T01:31:33.883Z,51.54
2023-10-21T01:34:02.075Z,51.78
2023-10-21T01:36:30.136Z,51.64
2023-10-21T01:38:58.179Z,51.53
2023-10-21T01:41:27.570Z,51.67
2023-10-21T01:43:55.508Z,52.02
2023-10-21T01:46:23.478Z,51.77
2023-10-21T01:48:51.993Z,52.12
2023-10-21T01:51:20.278Z,51.85
2023-10-21T01:53:48.305Z,51.37
2023-10-21T01:56:16.314Z,51.03
2023-10-21T01:58:45.718Z,50.52
2023-10-21T02:01:13.716Z,50.79
2023-10-21T02:03:43.075Z,51.39
2023-10-21T02:06:11.336Z,51.92
2023-10-21T02:08:39.408Z,52.13
2023-10-21T02:11:07.767Z,52.92
2023-10-21T02:13:35.732Z,53.19
2023-10-21T02:16:11.215Z,53.59
2023-10-21T02:18:39.330Z,53.28
2023-10-21T02:21:07.926Z,53.33
2023-10-21T02:23:36.193Z,53.92
2023-10-21T02:26:05.703Z,52.89
2023-10-21T02:28:33.650Z,53.62
2023-10-21T02:31:05.580Z,53.94
2023-10-21T02:33:33.709Z,53.72
2023-10-21T02:36:01.743Z,54.11
2023-10-21T02:38:30.379Z,54.06
2023-10-21T02:40:58.507Z,54.07
2023-10-21T02:43:26.460Z,54.13
2023-10-21T02:45:54.432Z,54.00
2023-10-21T02:48:23.925Z,53.74
2023-10-21T02:50:51.949Z,53.68
2023-10-21T02:53:19.961Z,53.54
2023-10-21T02:55:47.913Z,53.27
2023-10-21T02:58:15.886Z,53.02
2023-10-21T03:00:43.896Z,53.33
2023-10-21T03:03:11.972Z,52.88
2023-10-21T03:05:43.819Z,52.26
2023-10-21T03:08:11.865Z,51.71
2023-10-21T03:10:39.882Z,51.04
2023-10-21T03:13:07.847Z,50.91
2023-10-21T03:15:36.046Z,50.79
2023-10-21T03:18:04.345Z,51.07
2023-10-21T03:20:34.181Z,51.16
2023-10-21T03:23:04.680Z,51.61
2023-10-21T03:25:34.502Z,51.17
2023-10-21T03:28:02.937Z,51.43
2023-10-21T03:30:31.285Z,52.02
2023-10-21T03:32:59.378Z,52.76
2023-10-21T03:35:27.495Z,53.08
2023-10-21T03:37:55.463Z,54.27
2023-10-21T03:40:24.805Z,54.02
2023-10-21T03:42:52.878Z,55.12
2023-10-21T03:45:21.276Z,55.48
2023-10-21T03:47:49.947Z,55.29
2023-10-21T03:50:17.962Z,55.46
2023-10-21T03:52:45.964Z,56.15
2023-10-21T03:55:13.957Z,56.02
2023-10-21T03:57:43.331Z,56.51
2023-10-21T04:00:13.402Z,56.98
2023-10-21T04:02:41.534Z,57.87
2023-10-21T04:05:10.030Z,57.74
2023-10-21T04:07:38.066Z,57.26
2023-10-21T04:10:06.592Z,57.49
2023-10-21T04:12:34.564Z,58.07
2023-10-21T04:15:04.135Z,58.19
2023-10-21T04:17:32.208Z,58.36
2023-10-21T04:20:00.330Z,58.97
2023-10-21T04:22:28.456Z,58.55
2023-10-21T04:24:56.405Z,58.95
2023-10-21T04:27:24.479Z,60.10
2023-10-21T04:29:52.506Z,60.27
2023-10-21T04:32:21.872Z,60.64
2023-10-21T04:34:49.874Z,60.51
2023-10-21T04:37:17.898Z,60.38
2023-10-21T04:39:45.825Z,60.33
2023-10-21T04:42:14.512Z,61.00
2023-10-21T04:44:44.294Z,61.07
2023-10-21T04:47:12.503Z,61.39
2023-10-21T04:49:44.120Z,60.63
2023-10-21T04:52:13.165Z,61.06
2023-10-21T04:54:41.158Z,61.06
2023-10-21T04:57:09.252Z,61.42
2023-10-21T04:59:37.579Z,61.63
2023-10-21T05:02:05.717Z,61.63
2023-10-21T05:04:34.185Z,60.83
2023-10-21T05:07:04.716Z,61.35
2023-10-21T05:09:33.478Z,61.21
2023-10-21T05:12:02.249Z,61.65
2023-10-21T05:14:30.347Z,61.75
2023-10-21T05:16:58.389Z,61.40
2023-10-21T05:19:26.418Z,61.72
2023-10-21T05:21:54.411Z,61.93
2023-10-21T05:24:23.869Z,61.97
2023-10-21T05:26:53.173Z,60.84
2023-10-21T05:29:21.173Z,61.38
2023-10-21T05:31:50.546Z,60.78
2023-10-21T05:34:20.673Z,61.04
2023-10-21T05:36:48.824Z,61.17
2023-10-21T05:39:17.072Z,61.82
2023-10-21T05:41:46.446Z,61.63
2023-10-21T05:44:14.429Z,63.29
2023-10-21T05:46:42.483Z,63.40
2023-10-21T05:49:10.594Z,62.08
2023-10-21T05:51:38.562Z,60.04
2023-10-21T05:54:06.850Z,58.38
2023-10-21T05:56:34.957Z,56.99
2023-10-21T05:59:05.421Z,55.65
2023-10-21T06:01:33.547Z,54.31
2023-10-21T06:04:01.614Z,53.69
2023-10-21T06:06:29.754Z,52.47
2023-10-21T06:08:57.820Z,50.92
2023-10-21T06:11:25.862Z,49.69
2023-10-21T06:13:53.832Z,47.88
2023-10-21T06:16:23.346Z,45.89
2023-10-21T06:18:51.312Z,46.95
2023-10-21T06:21:19.698Z,47.08
2023-10-21T06:23:47.710Z,47.71
2023-10-21T06:26:16.080Z,47.87
2023-10-21T06:28:44.025Z,48.93
2023-10-21T06:31:12.342Z,50.24
2023-10-21T06:33:41.815Z,50.88
2023-10-21T06:36:10.219Z,50.05
2023-10-21T06:38:38.481Z,49.61
2023-10-21T06:41:14.249Z,49.59
2023-10-21T06:43:43.340Z,50.11
2023-10-21T06:46:11.771Z,49.40
2023-10-21T06:48:41.186Z,48.83
2023-10-21T06:51:09.268Z,48.39
2023-10-21T06:53:37.402Z,47.97
2023-10-21T06:56:12.024Z,48.20
2023-10-21T06:58:40.911Z,47.97
2023-10-21T07:01:09.084Z,46.94
2023-10-21T07:03:38.071Z,46.19
2023-10-21T07:06:07.809Z,42.87
2023-10-21T07:08:37.012Z,39.00
2023-10-21T07:11:05.287Z,37.00
2023-10-21T07:13:33.666Z,36.72
2023-10-21T07:16:07.853Z,35.26
2023-10-21T07:18:35.879Z,34.37
2023-10-21T07:21:03.926Z,34.16
2023-10-21T07:23:33.464Z,32.66
2023-10-21T07:26:01.484Z,32.23
2023-10-21T07:28:30.303Z,32.01
2023-10-21T07:30:58.513Z,31.27
2023-10-21T07:33:26.571Z,30.46
2023-10-21T07:35:54.919Z,29.84
2023-10-21T07:38:23.479Z,29.67
2023-10-21T07:40:52.839Z,28.88
2023-10-21T07:43:21.291Z,28.83
2023-10-21T07:45:49.991Z,28.49
2023-10-21T07:48:18.208Z,28.07
2023-10-21T07:50:46.297Z,27.66
2023-10-21T07:53:14.253Z,27.73
2023-10-21T07:55:42.245Z,27.40
2023-10-21T07:58:11.615Z,27.35
2023-10-21T08:00:41.119Z,26.64
2023-10-21T08:03:09.148Z,26.30
2023-10-21T08:05:38.483Z,26.33
2023-10-21T08:08:06.874Z,25.65
2023-10-21T08:10:35.176Z,25.91
2023-10-21T08:13:03.235Z,25.53
2023-10-21T08:15:32.940Z,24.87
2023-10-21T08:18:01.107Z,25.49
2023-10-21T08:20:29.139Z,24.82
2023-10-21T08:22:56.119Z,23.69
2023-10-21T08:25:24.153Z,24.22
2023-10-21T08:27:52.156Z,23.88
2023-10-21T08:30:21.496Z,23.31
2023-10-21T08:32:52.775Z,23.58
2023-10-21T08:35:20.924Z,23.04
2023-10-21T08:37:48.914Z,23.21
2023-10-21T08:40:17.691Z,22.99
2023-10-21T08:43:00.155Z,22.87
2023-10-21T08:45:32.000Z,23.54
2023-10-21T08:48:03.310Z,23.27
2023-10-21T08:50:36.927Z,22.72
2023-10-21T08:53:07.509Z,22.55
2023-10-21T08:55:37.848Z,22.48
2023-10-21T08:58:07.756Z,22.31
2023-10-21T09:00:36.082Z,21.90
2023-10-21T09:03:06.404Z,22.57
2023-10-21T09:05:35.848Z,22.66
2023-10-21T09:08:05.345Z,21.97
2023-10-21T09:10:36.357Z,22.53
2023-10-21T09:13:15.493Z,22.31
2023-10-21T09:15:46.155Z,22.72
2023-10-21T09:18:16.311Z,22.79
2023-10-21T09:20:50.363Z,22.34
2023-10-21T09:23:18.855Z,23.26
2023-10-21T09:25:50.925Z,22.87
2023-10-21T09:28:23.090Z,23.04
2023-10-21T09:30:59.160Z,23.90
2023-10-21T09:33:28.681Z,24.33
2023-10-21T09:36:19.005Z,23.92
2023-10-21T09:38:52.626Z,23.37
2023-10-21T09:41:22.340Z,23.73
2023-10-21T09:43:52.528Z,23.79
2023-10-21T09:46:26.601Z,23.42
2023-10-21T09:49:01.646Z,23.44
2023-10-21T09:51:35.431Z,22.91
2023-10-21T09:54:12.833Z,23.13
2023-10-21T09:56:42.504Z,23.39
2023-10-21T09:59:11.854Z,23.38
2023-10-21T10:01:41.218Z,22.65
2023-10-21T10:04:12.389Z,23.39
2023-10-21T10:06:43.853Z,23.04
2023-10-21T10:09:14.264Z,22.65
2023-10-21T10:11:43.509Z,22.43
2023-10-21T10:14:12.525Z,22.45
2023-10-21T10:16:46.126Z,22.41
2023-10-21T10:19:17.789Z,22.50
2023-10-21T10:21:53.179Z,21.91
2023-10-21T10:24:23.757Z,21.94
2023-10-21T10:26:54.622Z,21.92
2023-10-21T10:29:27.267Z,21.14
2023-10-21T10:32:17.922Z,21.12
2023-10-21T10:34:54.428Z,21.61
2023-10-21T10:37:36.454Z,21.11
2023-10-21T10:40:19.522Z,21.69
2023-10-21T10:42:47.488Z,21.77
2023-10-21T10:45:15.474Z,21.35
2023-10-21T10:47:44.641Z,21.51
2023-10-21T10:50:24.492Z,21.41
2023-10-21T10:52:52.448Z,21.13
2023-10-21T10:55:20.449Z,21.33
2023-10-21T10:57:49.226Z,21.30
2023-10-21T11:00:21.773Z,21.13
2023-10-21T11:02:50.695Z,21.93
2023-10-21T11:05:22.330Z,21.12
2023-10-21T11:07:51.705Z,21.54
2023-10-21T11:10:25.882Z,20.47
2023-10-21T11:12:54.308Z,20.90
2023-10-21T11:15:23.214Z,21.23
2023-10-21T11:17:52.776Z,20.75
2023-10-21T11:20:22.296Z,20.96
2023-10-21T11:22:50.247Z,21.17
2023-10-21T11:25:20.328Z,20.33
2023-10-21T11:27:49.429Z,20.92
2023-10-21T11:30:17.671Z,20.89
2023-10-21T11:32:47.082Z,20.37
2023-10-21T11:35:16.170Z,20.34
2023-10-21T11:37:45.713Z,20.21
2023-10-21T11:40:17.090Z,20.21
2023-10-21T11:42:59.784Z,21.32
2023-10-21T11:45:30.392Z,20.22
2023-10-21T11:47:58.671Z,21.38
2023-10-21T11:50:26.949Z,21.26
2023-10-21T11:52:56.288Z,20.84
2023-10-21T11:55:40.035Z,20.80
2023-10-21T11:58:25.549Z,21.40
2023-10-21T12:01:10.890Z,20.34
2023-10-21T12:04:07.898Z,20.57
2023-10-21T12:07:01.544Z,20.43
2023-10-21T12:09:56.776Z,20.51
2023-10-21T12:12:42.380Z,20.83
2023-10-21T12:15:36.628Z,21.60
2023-10-21T12:18:24.737Z,20.59
2023-10-21T12:21:06.735Z,20.87
2023-10-21T12:24:00.055Z,20.79
2023-10-21T12:26:53.197Z,21.11
2023-10-21T12:29:38.654Z,20.60
2023-10-21T12:32:23.746Z,20.24
2023-10-21T12:35:08.498Z,20.10
2023-10-21T12:38:14.376Z,21.08
2023-10-21T12:40:56.880Z,21.14
2023-10-21T12:43:26.050Z,21.75
2023-10-21T12:45:55.662Z,21.44
2023-10-21T12:48:23.897Z,21.10
2023-10-21T12:50:51.983Z,21.31
2023-10-21T12:53:20.312Z,21.77
2023-10-21T12:55:48.669Z,21.28
2023-10-21T12:58:16.663Z,21.56
2023-10-21T13:00:46.164Z,22.17
2023-10-21T13:03:14.817Z,22.15
2023-10-21T13:05:44.892Z,22.20
2023-10-21T13:08:13.097Z,22.08
2023-10-21T13:10:41.375Z,22.73
2023-10-21T13:13:10.335Z,22.02
2023-10-21T13:15:38.896Z,22.36
2023-10-21T13:18:08.865Z,22.39
2023-10-21T13:20:37.255Z,21.96
2023-10-21T13:23:05.717Z,22.74
2023-10-21T13:25:35.035Z,23.26
2023-10-21T13:28:06.623Z,23.20
2023-10-21T13:30:35.183Z,23.36
2023-10-21T13:33:05.339Z,23.31
2023-10-21T13:35:35.640Z,23.09
2023-10-21T13:38:03.991Z,23.04
2023-10-21T13:40:32.288Z,21.96
2023-10-21T13:43:00.417Z,22.94
2023-10-21T13:45:30.086Z,22.96
2023-10-21T13:48:00.389Z,22.91
2023-10-21T13:50:29.830Z,23.05
2023-10-21T13:53:05.943Z,22.82
2023-10-21T13:55:34.147Z,22.88
2023-10-21T13:58:02.131Z,23.29
2023-10-21T14:00:39.031Z,23.32
2023-10-21T14:03:11.598Z,23.00
2023-10-21T14:05:40.361Z,24.06
2023-10-21T14:08:12.372Z,23.55
2023-10-21T14:10:43.960Z,23.67
2023-10-21T14:13:16.803Z,23.34
2023-10-21T14:15:46.640Z,23.83
2023-10-21T14:18:14.787Z,23.39
2023-10-21T14:20:43.330Z,23.39
2023-10-21T14:23:16.128Z,23.42
2023-10-21T14:25:46.497Z,24.20
2023-10-21T14:28:15.688Z,24.24
2023-10-21T14:30:47.806Z,24.83
2023-10-21T14:33:18.219Z,25.79
2023-10-21T14:35:47.759Z,25.58
2023-10-21T14:38:18.307Z,25.83
2023-10-21T14:40:47.077Z,26.46
2023-10-21T14:43:16.293Z,26.60
2023-10-21T14:45:45.721Z,26.96
2023-10-21T14:48:14.582Z,26.92
2023-10-21T14:50:43.679Z,26.62
2023-10-21T14:53:12.362Z,26.33
2023-10-21T14:55:52.339Z,26.54
2023-10-21T14:58:23.975Z,26.04
2023-10-21T15:00:52.822Z,26.52
2023-10-21T15:03:22.260Z,26.25
2023-10-21T15:05:51.151Z,26.08
2023-10-21T15:08:23.774Z,25.95
2023-10-21T15:10:53.740Z,26.07
2023-10-21T15:13:24.314Z,26.53
2023-10-21T15:16:00.619Z,26.56
2023-10-21T15:18:28.908Z,27.63
2023-10-21T15:21:04.685Z,28.03
2023-10-21T15:23:35.396Z,28.25
2023-10-21T15:26:05.092Z,28.18
2023-10-21T15:28:34.243Z,28.63
2023-10-21T15:31:02.226Z,28.88
2023-10-21T15:33:30.226Z,28.94
2023-10-21T15:35:58.200Z,29.79
2023-10-21T15:38:26.156Z,29.69
2023-10-21T15:40:54.109Z,28.46
2023-10-21T15:43:23.524Z,28.60
2023-10-21T15:46:00.041Z,28.96
2023-10-21T15:48:28.174Z,28.81
2023-10-21T15:51:08.347Z,28.82
2023-10-21T15:53:36.347Z,29.20
2023-10-21T15:56:04.406Z,29.61
2023-10-21T15:58:33.773Z,29.69
2023-10-21T16:01:01.766Z,29.85
2023-10-21T16:03:29.959Z,30.52
2023-10-21T16:05:58.711Z,30.06
2023-10-21T16:08:26.725Z,30.33
2023-10-21T16:11:01.900Z,30.30
2023-10-21T16:13:29.893Z,30.52
2023-10-21T16:16:00.667Z,30.46
2023-10-21T16:18:28.973Z,31.35
2023-10-21T16:20:57.023Z,30.77
2023-10-21T16:23:24.998Z,30.80
2023-10-21T16:25:52.950Z,31.11
2023-10-21T16:28:20.949Z,31.06
2023-10-21T16:30:48.980Z,31.54
2023-10-21T16:33:18.472Z,31.54
2023-10-21T16:35:47.126Z,31.61
2023-10-21T16:38:15.933Z,31.30
2023-10-21T16:40:44.350Z,32.04
2023-10-21T16:43:12.660Z,32.17
2023-10-21T16:45:44.127Z,32.45
2023-10-21T16:48:12.293Z,34.66
2023-10-21T16:50:41.837Z,34.66
2023-10-21T16:53:10.657Z,34.94
2023-10-21T16:55:38.799Z,34.66
2023-10-21T16:58:06.764Z,33.54
2023-10-21T17:00:34.767Z,33.79
2023-10-21T17:03:05.631Z,33.89
2023-10-21T17:05:35.658Z,33.89
2023-10-21T17:08:06.072Z,34.77
2023-10-21T17:10:35.237Z,35.73
2023-10-21T17:13:03.253Z,36.01
2023-10-21T17:15:31.728Z,34.27
2023-10-21T17:17:59.986Z,34.58
2023-10-21T17:20:28.799Z,34.93
2023-10-21T17:22:57.297Z,34.37
2023-10-21T17:25:27.879Z,33.94
2023-10-21T17:27:55.911Z,33.96
2023-10-21T17:30:23.920Z,33.53
2023-10-21T17:32:52.526Z,33.41
2023-10-21T17:35:23.159Z,33.36
2023-10-21T17:37:52.260Z,33.95
2023-10-21T17:40:20.266Z,34.12
2023-10-21T17:42:49.704Z,34.56
2023-10-21T17:45:18.320Z,34.11
2023-10-21T17:47:46.335Z,35.02
2023-10-21T17:50:15.037Z,35.75
2023-10-21T17:52:43.058Z,35.87
2023-10-21T17:55:11.015Z,35.97
2023-10-21T17:57:41.009Z,35.78
2023-10-21T18:00:12.247Z,36.21
2023-10-21T18:02:40.464Z,36.04
2023-10-21T18:05:08.985Z,36.49
2023-10-21T18:07:36.922Z,36.33
2023-10-21T18:10:05.639Z,36.30
2023-10-21T18:12:33.794Z,36.02
2023-10-21T18:15:04.203Z,35.87
2023-10-21T18:17:35.239Z,35.91
2023-10-21T18:20:05.170Z,35.91
2023-10-21T18:22:33.476Z,36.20
2023-10-21T18:25:01.479Z,36.78
2023-10-21T18:27:30.701Z,37.20
2023-10-21T18:29:58.790Z,37.88
2023-10-21T18:32:26.759Z,38.19
2023-10-21T18:34:56.112Z,38.39
2023-10-21T18:37:24.048Z,38.65
2023-10-21T18:39:52.045Z,38.82
2023-10-21T18:42:19.997Z,39.43
2023-10-21T18:44:48.015Z,39.29
2023-10-21T18:47:16.016Z,39.52
2023-10-21T18:49:43.991Z,39.61
2023-10-21T18:52:17.428Z,38.98
2023-10-21T18:54:45.638Z,39.12
2023-10-21T18:57:13.719Z,39.15
2023-10-21T18:59:41.920Z,39.44
2023-10-21T19:02:15.978Z,39.84
2023-10-21T19:04:45.639Z,39.60
2023-10-21T19:07:16.089Z,39.73
2023-10-21T19:09:44.483Z,39.82
2023-10-21T19:12:12.546Z,39.53
2023-10-21T19:14:40.607Z,39.36
2023-10-21T19:17:08.618Z,39.57
2023-10-21T19:19:37.214Z,39.63
2023-10-21T19:22:05.524Z,39.68
2023-10-21T19:24:34.986Z,39.43
2023-10-21T19:27:02.994Z,39.53
2023-10-21T19:29:31.626Z,39.43
2023-10-21T19:31:59.781Z,39.76
2023-10-21T19:34:28.758Z,39.76
2023-10-21T19:36:57.173Z,40.12
2023-10-21T19:39:28.074Z,39.92
2023-10-21T19:41:57.637Z,39.92
2023-10-21T19:44:27.027Z,40.85
2023-10-21T19:46:56.207Z,41.17
2023-10-21T19:49:24.915Z,41.74
2023-10-21T19:51:53.072Z,41.89
2023-10-21T19:54:21.083Z,41.63
2023-10-21T19:56:49.080Z,41.32
2023-10-21T19:59:18.431Z,40.98
2023-10-21T20:01:46.468Z,41.02
2023-10-21T20:04:14.800Z,41.38
2023-10-21T20:06:42.885Z,42.07
2023-10-21T20:09:12.205Z,42.30
2023-10-21T20:11:40.374Z,42.23
2023-10-21T20:14:08.459Z,42.29
2023-10-21T20:16:37.811Z,41.99
2023-10-21T20:19:05.851Z,42.53
2023-10-21T20:21:37.027Z,42.92
2023-10-21T20:24:05.728Z,43.29
2023-10-21T20:26:33.860Z,43.60
2023-10-21T20:29:01.850Z,44.00
2023-10-21T20:31:32.796Z,44.06
2023-10-21T20:34:02.657Z,44.25
2023-10-21T20:36:30.841Z,44.07
2023-10-21T20:38:58.860Z,44.13
2023-10-21T20:41:26.824Z,44.11
2023-10-21T20:43:54.794Z,43.91
2023-10-21T20:46:22.922Z,43.87
2023-10-21T20:48:50.966Z,43.65
2023-10-21T20:51:20.429Z,43.75
2023-10-21T20:53:48.422Z,43.40
2023-10-21T20:56:22.169Z,43.56
2023-10-21T20:58:50.500Z,43.30
2023-10-21T21:03:49.745Z,43.86
2023-10-21T21:06:17.825Z,43.80
2023-10-21T21:08:47.183Z,44.06
2023-10-21T21:11:15.259Z,44.11
2023-10-21T21:13:43.666Z,44.11
2023-10-21T21:16:12.128Z,44.40
2023-10-21T21:18:41.328Z,43.97
2023-10-21T21:21:09.561Z,44.57
2023-10-21T21:23:37.504Z,44.69
2023-10-21T21:26:06.877Z,44.51
2023-10-21T21:28:34.940Z,44.44
2023-10-21T21:31:02.961Z,44.70
2023-10-21T21:33:31.121Z,44.99
2023-10-21T21:36:00.220Z,45.20
2023-10-21T21:38:28.703Z,45.21
2023-10-21T21:40:56.674Z,45.04
2023-10-21T21:43:27.950Z,44.94
2023-10-21T21:45:56.785Z,45.14
2023-10-21T21:48:24.936Z,45.09
2023-10-21T21:50:53.054Z,45.02
2023-10-21T21:53:21.005Z,44.74
2023-10-21T21:55:55.373Z,44.06
2023-10-21T21:58:23.420Z,43.66
2023-10-21T22:00:55.123Z,43.34
2023-10-21T22:03:23.615Z,43.75
2023-10-21T22:05:53.805Z,43.92
2023-10-21T22:08:22.225Z,43.90
2023-10-21T22:10:50.659Z,44.07
2023-10-21T22:13:19.221Z,44.25
2023-10-21T22:15:47.525Z,44.08
2023-10-21T22:18:16.990Z,44.40
2023-10-21T22:20:45.222Z,44.07
2023-10-21T22:23:13.298Z,44.12
2023-10-21T22:25:41.391Z,44.33
2023-10-21T22:28:13.093Z,44.83
2023-10-21T22:30:42.365Z,45.04
2023-10-21T22:33:10.483Z,45.32
2023-10-21T22:35:40.404Z,45.65
2023-10-21T22:38:09.070Z,45.86
2023-10-21T22:40:37.096Z,46.23
2023-10-21T22:43:05.084Z,45.89
2023-10-21T22:45:34.230Z,45.70
2023-10-21T22:48:03.147Z,45.33
2023-10-21T22:50:31.326Z,45.69
2023-10-21T22:53:01.367Z,45.90
2023-10-21T22:55:29.329Z,46.26
2023-10-21T22:57:57.727Z,46.14
2023-10-21T23:00:28.278Z,46.25
2023-10-21T23:02:59.935Z,46.58
2023-10-21T23:05:28.447Z,46.80
2023-10-21T23:07:58.847Z,46.58
2023-10-21T23:10:29.761Z,46.15
2023-10-21T23:12:57.942Z,46.01
2023-10-21T23:15:25.948Z,45.90
2023-10-21T23:17:54.488Z,46.57
2023-10-21T23:20:22.497Z,46.77
2023-10-21T23:22:50.493Z,47.10
2023-10-21T23:25:21.375Z,47.18
2023-10-21T23:27:54.005Z,47.25
2023-10-21T23:30:22.596Z,46.98
2023-10-21T23:32:51.595Z,46.79
2023-10-21T23:35:20.198Z,46.71
2023-10-21T23:37:48.833Z,46.58
2023-10-21T23:40:17.041Z,46.13
2023-10-21T23:42:47.448Z,46.06
2023-10-21T23:45:17.382Z,45.65
2023-10-21T23:47:45.658Z,45.85
2023-10-21T23:50:15.730Z,45.90
2023-10-21T23:52:44.237Z,45.73
2023-10-21T23:55:12.974Z,45.79
2023-10-21T23:57:42.186Z,45.82
